Meadows Field
KBFL : now visible

Airfield :











YOU CAN JOIN US ON...

 
LOGIN :

Register | Disclaimer

   EN    FR    IT 

 









Legend :    VFR   Marginal VFR   IFR   Intensive IFR   Very Intensive IFR
Visi :
Ceiling :
>= 8 km
>= 3000ft
5 to 8 km
1000 to 3000 ft
1500m to 5 km
500 to 1000 ft
800 to 1500m
200 to 500 ft
< 800m
< 200 ft
Symbols :   Thunderstorms  Fog  Heavy snow  Heavy precipitations  Wind > 20 kt






- Airport Elevation : 510 ft
- IATA code : BFL


KBFL - Meadows Field

CURRENT METAR :
  • 080754Z AUTO 15005KT 7SM SCT055 BKN070 14/12 A3005 RMK AO2 RAE13 SLP172 P0001 T01390122 402110133

EXPIRED METARs :
  • 080654Z 00000KT 7SM -RA OVC048 15/13 A3005 RMK AO2 RAE0559B44 SLP173 P0000 T01500128
  • 080554Z 14003KT 10SM -RA BKN032 BKN050 OVC100 16/12 A3005 RMK AO2 RAB01 SLP172 P0000 60000 T01560122 10178 20150 51011

TAF KBFL
Valid from the 08 at 06:00 until the 09 at 06:00 UTC


080540Z 0806/0906 13009KT 5SM BR BKN050 OVC070
FM081200 02009KT 3SM -RA BKN030 OVC050
FM082100 30007KT P6SM OVC100
PROB30 0821/0824 5SM TSRA BKN050CB
FM090000 31005KT P6SM BKN100
PROB30 0900/0903 4SM -SHRA BKN050
FM090400 31004KT P6SM OVC250



MET'MAP, your aeronautical weather chart ! - Copyright ORBIFLY December 2007 - Disclaimer

ORBIFLY MET'MAP TEAM :

Programming & Development : Alexandra Zaïnal
Concept & original design : Baudouin d'Aumeries
Assistance for programming : Marc-Olivier Méhu
Technical & hardware support : Manuel Goepfert

Contact : metmap@orbifly.com




SOURCES & CREDITS :

   NOAA       Earth
Advisory